Time;durP1;ratioP1;P1;durP2;ratioP2;P2;SDS_P1;SDS_P2;PMS_P1;PMS_P2;Temp;Humidity;BMP_temperature;BMP_pressure;BME280_temperature;BME280_humidity;BME280_pressure;Samples;Min_cycle;Max_cycle;Signal;HPM_P1;HPM_P2
2022/10/05 00:01:41;;;;;;;6.47;4.93;;;;;;;10.79;80.32;95781.41;5114899;28;20488;-77
2022/10/05 00:04:15;;;;;;;5.93;5.33;;;;;;;10.80;80.07;95775.22;5113622;28;20448;-77
2022/10/05 00:06:43;;;;;;;6.73;6.03;;;;;;;10.76;80.34;95768.50;5115053;28;20436;-77
2022/10/05 00:09:15;;;;;;;9.13;5.00;;;;;;;10.73;80.35;95766.13;5114694;28;20450;-77
2022/10/05 00:11:43;;;;;;;4.93;4.30;;;;;;;10.73;80.06;95770.53;5114524;28;20452;-77
2022/10/05 00:14:16;;;;;;;5.77;4.97;;;;;;;10.72;79.70;95771.47;5114526;28;20491;-77
2022/10/05 00:16:43;;;;;;;5.50;5.07;;;;;;;10.70;80.19;95776.00;5114660;28;20534;-77
2022/10/05 00:19:21;;;;;;;5.03;4.57;;;;;;;10.66;79.86;95769.25;5114340;28;20475;-77
2022/10/05 00:21:47;;;;;;;6.00;4.90;;;;;;;10.66;80.20;95766.63;5114603;28;20488;-77
2022/10/05 00:24:17;;;;;;;5.30;4.90;;;;;;;10.61;80.81;95769.59;5114332;28;20452;-77
2022/10/05 00:26:44;;;;;;;5.73;5.23;;;;;;;10.55;81.02;95765.63;5114239;28;20453;-77
2022/10/05 00:29:20;;;;;;;7.30;4.80;;;;;;;10.52;81.49;95765.84;5114122;28;20438;-77
2022/10/05 00:31:47;;;;;;;4.30;3.80;;;;;;;10.44;80.97;95762.09;5114469;28;20492;-77
2022/10/05 00:34:15;;;;;;;7.03;5.30;;;;;;;10.41;81.03;95760.53;5114209;28;20955;-77
2022/10/05 00:36:43;;;;;;;5.20;4.50;;;;;;;10.35;81.74;95763.53;5114349;28;20449;-77
2022/10/05 00:39:10;;;;;;;5.00;4.60;;;;;;;10.27;81.26;95746.69;5078214;28;20449;-77
2022/10/05 00:41:48;;;;;;;4.93;4.50;;;;;;;10.31;82.33;95769.97;5113790;28;20553;-77
2022/10/05 00:44:36;;;;;;;5.23;4.83;;;;;;;10.23;81.33;95759.16;5113868;28;20440;-77
2022/10/05 00:47:16;;;;;;;6.23;4.87;;;;;;;10.25;82.43;95757.28;5114203;28;20549;-77
2022/10/05 00:50:08;;;;;;;5.67;4.80;;;;;;;10.25;81.83;95757.28;5113994;28;20899;-77
2022/10/05 00:52:44;;;;;;;7.40;5.50;;;;;;;10.28;81.78;95757.06;5113889;28;20792;-77
2022/10/05 00:55:23;;;;;;;5.53;5.10;;;;;;;10.28;81.69;95754.44;5113722;28;20948;-77
2022/10/05 00:58:05;;;;;;;5.67;4.60;;;;;;;10.31;81.70;95764.72;5113763;28;20440;-78
2022/10/05 01:00:38;;;;;;;5.80;4.67;;;;;;;10.37;81.44;95766.91;5080343;28;20447;-77
2022/10/05 01:03:16;;;;;;;5.10;4.60;;;;;;;10.41;81.62;95768.38;5113614;28;20842;-77
2022/10/05 01:05:58;;;;;;;5.10;4.70;;;;;;;10.41;81.15;95776.25;5113510;28;20443;-77
2022/10/05 01:08:36;;;;;;;5.03;4.60;;;;;;;10.38;81.51;95780.84;5113639;28;20932;-77
2022/10/05 01:11:13;;;;;;;4.90;4.50;;;;;;;10.33;81.13;95786.44;5113454;28;20501;-77
2022/10/05 01:13:49;;;;;;;5.83;4.97;;;;;;;10.31;81.44;95779.63;5113311;28;20453;-77
2022/10/05 01:16:23;;;;;;;5.77;5.03;;;;;;;10.33;81.19;95785.59;5113312;28;20478;-77
2022/10/05 01:18:56;;;;;;;5.93;5.43;;;;;;;10.33;81.76;95796.09;5113230;28;20503;-77
2022/10/05 01:21:27;;;;;;;5.17;4.70;;;;;;;10.34;81.12;95790.72;5112808;28;20501;-77
2022/10/05 01:24:25;;;;;;;5.87;5.27;;;;;;;10.33;81.95;95796.09;5113658;28;20721;-77
2022/10/05 01:27:08;;;;;;;4.33;4.03;;;;;;;10.30;81.63;95791.06;5049842;28;20470;-77
2022/10/05 01:29:42;;;;;;;5.53;4.67;;;;;;;10.30;81.93;95796.28;5050074;28;20559;-77
2022/10/05 01:32:16;;;;;;;5.00;4.60;;;;;;;10.27;81.27;95797.34;5049971;28;20453;-77
2022/10/05 01:34:52;;;;;;;4.50;4.20;;;;;;;10.25;81.29;95791.38;5049910;28;20488;-77
2022/10/05 01:37:27;;;;;;;4.80;4.40;;;;;;;10.27;80.94;95802.59;5050156;28;20445;-77
2022/10/05 01:40:03;;;;;;;5.17;4.67;;;;;;;10.11;81.75;95812.41;5049984;28;20447;-77
2022/10/05 01:42:41;;;;;;;9.47;6.70;;;;;;;10.01;82.45;95816.63;5050051;28;20487;-77
2022/10/05 01:45:18;;;;;;;8.47;7.50;;;;;;;9.99;82.92;95823.75;5049983;28;20500;-77
2022/10/05 01:47:49;;;;;;;9.37;7.90;;;;;;;9.97;83.14;95818.63;5049906;28;20457;-77
2022/10/05 01:50:26;;;;;;;9.10;7.03;;;;;;;9.93;83.90;95831.09;5049370;28;20446;-78
2022/10/05 01:53:02;;;;;;;12.10;8.00;;;;;;;9.81;83.75;95842.38;5049605;28;20570;-77
2022/10/05 01:55:40;;;;;;;8.40;7.23;;;;;;;9.77;83.67;95833.03;5049849;28;20549;-77
2022/10/05 01:58:15;;;;;;;11.77;7.97;;;;;;;9.78;83.91;95842.59;5049741;28;20940;-77
2022/10/05 02:00:52;;;;;;;9.43;8.50;;;;;;;9.71;84.22;95838.69;5018492;28;20546;-77
2022/10/05 02:03:23;;;;;;;7.33;6.53;;;;;;;9.69;84.95;95840.59;5065647;28;20486;-77
2022/10/05 02:05:55;;;;;;;9.63;7.20;;;;;;;9.70;84.92;95847.50;5112733;28;20479;-77
2022/10/05 02:08:27;;;;;;;7.70;6.90;;;;;;;9.63;85.45;95846.22;5112427;28;20439;-77
2022/10/05 02:10:59;;;;;;;9.50;7.10;;;;;;;9.58;85.35;95856.19;5112582;28;20497;-77
2022/10/05 02:13:32;;;;;;;9.20;7.80;;;;;;;9.60;85.67;95852.53;5112412;28;20451;-77
2022/10/05 02:16:03;;;;;;;7.67;6.90;;;;;;;9.57;86.54;95849.25;5112651;28;20439;-77
2022/10/05 02:18:37;;;;;;;11.27;7.63;;;;;;;9.57;86.20;95849.25;5112314;28;20444;-77
2022/10/05 02:21:05;;;;;;;8.47;7.07;;;;;;;9.62;86.29;95844.56;5060127;28;20437;-77
2022/10/05 02:23:35;;;;;;;8.53;7.40;;;;;;;9.70;86.48;95844.88;5112484;28;20881;-77
2022/10/05 02:26:04;;;;;;;7.77;6.53;;;;;;;9.69;86.02;95847.59;5112283;28;20440;-77
2022/10/05 02:28:36;;;;;;;8.13;5.97;;;;;;;9.69;85.62;95848.44;5115450;28;20443;-77
2022/10/05 02:31:09;;;;;;;5.87;5.30;;;;;;;9.62;85.09;95839.31;5116513;28;20517;-77
2022/10/05 02:33:36;;;;;;;5.90;5.40;;;;;;;9.60;84.50;95849.06;5116750;28;20471;-77
2022/10/05 02:36:13;;;;;;;9.50;5.40;;;;;;;9.59;84.37;95852.63;5116234;28;20519;-77
2022/10/05 02:38:54;;;;;;;4.90;4.50;;;;;;;9.64;83.71;95845.28;5080496;28;20435;-77
2022/10/05 02:41:29;;;;;;;5.20;4.70;;;;;;;9.65;84.07;95846.97;5116430;28;20435;-77
2022/10/05 02:44:06;;;;;;;6.23;4.47;;;;;;;9.62;83.74;95855.03;5081782;28;20510;-77
2022/10/05 02:46:40;;;;;;;4.23;3.90;;;;;;;9.57;84.54;95849.25;5116113;28;20501;-77
2022/10/05 02:49:19;;;;;;;4.70;4.13;;;;;;;9.61;84.47;95855.97;5116529;28;20513;-77
2022/10/05 02:51:51;;;;;;;5.50;5.10;;;;;;;9.65;83.78;95856.63;5115873;28;20476;-78
2022/10/05 02:54:33;;;;;;;4.77;4.37;;;;;;;9.69;84.02;95848.44;5115904;28;20482;-77
2022/10/05 02:57:08;;;;;;;6.73;4.87;;;;;;;9.72;84.38;95845.63;5082369;28;20949;-77
2022/10/05 02:59:38;;;;;;;4.13;3.87;;;;;;;9.70;83.99;95849.28;5116145;28;20786;-77
2022/10/05 03:02:14;;;;;;;6.07;4.50;;;;;;;9.70;83.40;95842.25;5116105;28;20490;-77
2022/10/05 03:04:48;;;;;;;7.00;4.93;;;;;;;9.71;83.96;95843.94;5116002;28;20447;-77
2022/10/05 03:07:22;;;;;;;5.30;4.87;;;;;;;9.73;84.34;95846.47;5116307;28;20454;-77
2022/10/05 03:09:56;;;;;;;4.90;4.40;;;;;;;9.71;83.69;95854.41;5115650;28;20808;-77
2022/10/05 03:12:39;;;;;;;12.40;5.50;;;;;;;9.61;83.30;95859.44;5115998;28;20442;-77
2022/10/05 03:15:19;;;;;;;5.50;5.00;;;;;;;9.58;84.02;95859.66;5115597;28;20517;-77
2022/10/05 03:17:57;;;;;;;5.67;5.13;;;;;;;9.56;84.52;95868.53;5115082;28;20475;-77
2022/10/05 03:20:36;;;;;;;5.13;4.70;;;;;;;9.57;84.39;95872.84;5112548;28;20466;-77
2022/10/05 03:23:09;;;;;;;4.97;4.60;;;;;;;9.58;84.92;95866.66;5115262;28;20478;-77
2022/10/05 03:26:05;;;;;;;5.03;4.70;;;;;;;9.59;84.91;95863.09;5115531;28;20482;-77
2022/10/05 03:28:39;;;;;;;5.20;4.70;;;;;;;9.57;84.96;95864.97;5115881;28;20986;-77
2022/10/05 03:31:15;;;;;;;4.57;4.23;;;;;;;9.51;84.65;95866.19;5115481;28;20983;-77
2022/10/05 03:33:49;;;;;;;5.17;4.67;;;;;;;9.47;85.46;95858.66;5115461;28;20960;-77
2022/10/05 03:36:26;;;;;;;5.60;5.20;;;;;;;9.49;84.84;95865.47;5115497;28;20446;-78
2022/10/05 03:39:03;;;;;;;4.93;4.07;;;;;;;9.48;85.11;95861.16;5063448;28;20459;-77
2022/10/05 03:41:36;;;;;;;8.10;5.47;;;;;;;9.50;84.73;95882.84;5115402;28;20491;-77
2022/10/05 03:44:19;;;;;;;9.80;5.47;;;;;;;9.53;84.72;95884.44;5115362;28;20490;-77
2022/10/05 03:46:57;;;;;;;5.63;5.13;;;;;;;9.57;84.71;95883.31;5115579;28;20443;-77
2022/10/05 03:49:34;;;;;;;7.03;4.80;;;;;;;9.56;83.93;95892.13;5066503;28;20443;-79
2022/10/05 03:52:05;;;;;;;5.20;4.43;;;;;;;9.54;83.94;95892.22;5115942;28;20483;-78
2022/10/05 03:54:38;;;;;;;5.57;5.07;;;;;;;9.56;83.99;95894.75;5115564;28;20448;-77
2022/10/05 03:57:11;;;;;;;5.70;5.17;;;;;;;9.49;83.98;95899.53;5062771;28;20427;-77
2022/10/05 03:59:44;;;;;;;4.93;4.53;;;;;;;9.45;85.34;95905.06;5115299;28;20504;-77
2022/10/05 04:02:20;;;;;;;6.00;5.47;;;;;;;9.47;85.21;95913.66;5115218;28;20447;-77
2022/10/05 04:04:52;;;;;;;4.60;4.20;;;;;;;9.47;84.88;95913.66;5115151;28;20446;-77
2022/10/05 04:07:31;;;;;;;10.10;5.30;;;;;;;9.46;84.42;95925.91;5115314;28;20447;-77
2022/10/05 04:10:00;;;;;;;8.23;5.70;;;;;;;9.47;83.97;95929.38;5115072;28;20443;-77
2022/10/05 04:12:33;;;;;;;5.97;5.40;;;;;;;9.42;84.61;95918.34;5115196;28;20825;-77
2022/10/05 04:15:06;;;;;;;6.07;5.03;;;;;;;9.44;84.68;95922.56;5115024;28;20456;-77
2022/10/05 04:17:37;;;;;;;5.83;5.33;;;;;;;9.43;84.62;95927.91;5115116;28;20439;-77
2022/10/05 04:20:15;;;;;;;6.23;5.63;;;;;;;9.40;84.47;95928.09;5115131;28;20822;-78
2022/10/05 04:22:58;;;;;;;9.03;5.50;;;;;;;8.86;86.19;95920.97;5115113;28;20821;-77
2022/10/05 04:25:29;;;;;;;8.20;5.83;;;;;;;8.86;85.78;95928.81;5114742;28;20451;-77
2022/10/05 04:28:06;;;;;;;10.17;6.33;;;;;;;8.92;86.84;95924.97;5114535;28;20991;-77
2022/10/05 04:30:38;;;;;;;9.53;6.83;;;;;;;8.96;87.01;95929.09;5114612;28;20442;-78
2022/10/05 04:33:10;;;;;;;5.67;5.17;;;;;;;8.90;86.80;95927.69;5114694;28;20496;-78
2022/10/05 04:35:59;;;;;;;6.37;5.03;;;;;;;8.90;86.56;95926.84;5114710;28;20511;-78
2022/10/05 04:38:51;;;;;;;18.20;6.00;;;;;;;8.92;86.33;95930.22;5114614;28;20459;-77
2022/10/05 04:41:59;;;;;;;6.67;5.83;;;;;;;8.91;86.60;95931.16;5114516;28;20850;-76
2022/10/05 04:44:45;;;;;;;5.10;4.70;;;;;;;8.90;87.13;95932.09;5050820;28;20476;-77
2022/10/05 04:47:31;;;;;;;5.97;5.07;;;;;;;8.92;87.05;95932.84;5051528;28;20508;-77
2022/10/05 04:50:22;;;;;;;5.20;4.23;;;;;;;8.97;86.86;95942.09;5051376;28;20476;-77
2022/10/05 04:53:01;;;;;;;9.33;5.80;;;;;;;9.03;86.64;95947.91;5046986;28;20486;-76
2022/10/05 04:55:36;;;;;;;8.20;6.47;;;;;;;9.10;86.20;95955.28;5045599;28;20457;-78
2022/10/05 04:58:15;;;;;;;13.50;5.87;;;;;;;9.23;86.70;95953.56;5031443;28;20440;-77
2022/10/05 05:00:54;;;;;;;8.87;6.20;;;;;;;9.31;86.39;95953.09;5032364;28;20450;-77
2022/10/05 05:03:42;;;;;;;6.47;4.83;;;;;;;9.42;86.48;95955.03;5049920;28;20486;-77
2022/10/05 05:06:18;;;;;;;5.83;4.87;;;;;;;9.42;85.73;95952.41;5047305;28;20941;-77
2022/10/05 05:09:09;;;;;;;7.27;4.30;;;;;;;9.43;86.21;95952.31;5043723;28;20447;-77
2022/10/05 05:11:49;;;;;;;5.43;5.03;;;;;;;9.45;85.04;95952.22;5046248;28;20458;-77
2022/10/05 05:14:39;;;;;;;6.43;5.70;;;;;;;9.48;85.50;95955.47;5043348;28;20444;-77
2022/10/05 05:17:20;;;;;;;14.80;6.40;;;;;;;9.49;85.55;95956.31;5030521;28;20474;-77
2022/10/05 05:19:57;;;;;;;5.70;5.20;;;;;;;9.55;85.50;95958.56;5046572;28;20449;-77
2022/10/05 05:22:34;;;;;;;6.23;4.63;;;;;;;9.57;84.53;95960.16;5113236;28;20447;-77
2022/10/05 05:25:18;;;;;;;5.40;4.53;;;;;;;9.56;84.75;95958.47;5113210;28;20442;-77
2022/10/05 05:27:48;;;;;;;5.57;5.07;;;;;;;9.78;86.58;95960.53;5077032;28;20840;-77
2022/10/05 05:30:21;;;;;;;5.20;4.70;;;;;;;10.14;83.63;95969.59;5113051;28;20439;-77
2022/10/05 05:32:59;;;;;;;5.33;4.50;;;;;;;10.57;84.05;95966.75;5113397;28;20437;-77
2022/10/05 05:35:39;;;;;;;5.53;4.43;;;;;;;11.44;80.43;95972.06;5113192;28;20441;-77
2022/10/05 05:38:21;;;;;;;4.60;4.23;;;;;;;12.34;78.07;95976.03;5112736;28;20446;-77
2022/10/05 05:40:57;;;;;;;5.80;4.13;;;;;;;13.19;73.61;95979.25;5112959;28;20439;-77
2022/10/05 05:43:27;;;;;;;6.40;4.00;;;;;;;13.87;69.21;95972.94;5112634;28;20482;-77
2022/10/05 05:45:59;;;;;;;4.23;3.93;;;;;;;14.47;67.93;95982.16;5112708;28;20435;-77
2022/10/05 05:48:36;;;;;;;6.67;4.03;;;;;;;14.97;65.69;95975.25;5113208;28;20478;-77
2022/10/05 05:51:08;;;;;;;4.00;3.60;;;;;;;15.36;63.63;95986.03;5112981;28;20454;-77
2022/10/05 05:53:40;;;;;;;4.73;3.73;;;;;;;15.68;63.17;95977.97;5112860;28;20854;-77
2022/10/05 05:56:11;;;;;;;7.47;4.63;;;;;;;16.10;61.72;95987.41;5112663;28;20440;-77
2022/10/05 05:58:45;;;;;;;9.50;3.73;;;;;;;16.51;61.37;95990.81;5113121;28;20440;-77
2022/10/05 06:01:22;;;;;;;8.80;4.47;;;;;;;16.97;60.18;95998.03;5076661;28;20434;-77
2022/10/05 06:03:54;;;;;;;4.20;3.90;;;;;;;17.24;57.64;96002.59;5112009;28;20486;-77
2022/10/05 06:06:24;;;;;;;4.20;3.70;;;;;;;17.50;57.27;96002.78;5113018;28;20799;-75
2022/10/05 06:08:55;;;;;;;5.20;4.80;;;;;;;17.69;56.88;95999.28;5112531;28;20450;-78
2022/10/05 06:11:26;;;;;;;4.73;4.30;;;;;;;17.84;56.74;96000.44;5112374;28;20431;-77
2022/10/05 06:13:55;;;;;;;7.33;6.60;;;;;;;18.08;56.20;96007.88;5112666;28;20439;-77
2022/10/05 06:16:26;;;;;;;5.40;5.00;;;;;;;17.98;56.82;96003.59;5112597;28;20450;-77
2022/10/05 06:18:57;;;;;;;7.03;4.43;;;;;;;18.18;57.10;96005.13;5112860;28;20443;-77
2022/10/05 06:21:30;;;;;;;6.47;5.20;;;;;;;18.34;57.13;96007.97;5112425;28;20932;-78
2022/10/05 06:24:02;;;;;;;7.57;6.37;;;;;;;18.33;56.87;95998.34;5061695;28;20851;-77
2022/10/05 06:27:05;;;;;;;16.67;6.70;;;;;;;18.33;56.40;96024.09;5112829;28;20554;-78
2022/10/05 06:29:44;;;;;;;6.53;5.80;;;;;;;18.53;57.44;96023.81;5029373;28;20516;-78
2022/10/05 06:32:20;;;;;;;9.77;6.57;;;;;;;18.52;56.87;96019.47;5029721;28;20493;-78
2022/10/05 06:35:01;;;;;;;8.63;6.30;;;;;;;18.07;57.65;96024.78;5029499;28;20447;-77
2022/10/05 06:37:42;;;;;;;8.30;6.17;;;;;;;18.12;58.35;96027.00;5029551;28;20538;-78
2022/10/05 06:40:21;;;;;;;8.60;5.97;;;;;;;17.87;58.52;96036.47;5029310;28;20454;-78
2022/10/05 06:43:02;;;;;;;22.60;7.53;;;;;;;17.80;59.18;96016.81;5029425;28;20485;-78
2022/10/05 06:45:38;;;;;;;13.73;6.60;;;;;;;17.94;59.16;96027.81;4980273;28;20816;-78
2022/10/05 06:48:11;;;;;;;8.60;6.40;;;;;;;18.16;58.33;96036.34;4996180;28;20922;-78
2022/10/05 06:50:43;;;;;;;7.40;6.10;;;;;;;18.44;57.82;96042.47;5029158;28;20498;-78
2022/10/05 06:53:28;;;;;;;8.70;6.70;;;;;;;18.65;56.00;96048.38;5028970;28;20478;-77
2022/10/05 06:56:02;;;;;;;16.87;7.70;;;;;;;18.86;56.28;96053.41;5029178;28;20446;-78
2022/10/05 06:58:51;;;;;;;10.03;7.20;;;;;;;18.93;56.15;96059.78;5013517;28;20808;-78
2022/10/05 07:01:32;;;;;;;8.63;6.80;;;;;;;18.77;55.87;96056.94;4981307;28;20883;-77
2022/10/05 07:04:16;;;;;;;9.77;7.60;;;;;;;18.52;57.47;96054.03;5029203;28;20481;-77
2022/10/05 07:06:49;;;;;;;14.23;6.50;;;;;;;18.58;58.13;96047.28;5077743;28;20945;-77
2022/10/05 07:09:26;;;;;;;11.70;7.60;;;;;;;18.10;59.04;96048.41;5112016;28;20981;-77
2022/10/05 07:12:28;;;;;;;10.70;8.23;;;;;;;18.04;59.34;96042.84;5111681;28;20446;-78
2022/10/05 07:15:20;;;;;;;13.97;7.90;;;;;;;18.18;59.34;96037.84;5032040;28;20454;-78
2022/10/05 07:17:57;;;;;;;11.07;7.90;;;;;;;18.05;58.75;96041.84;4973836;28;20870;-76
2022/10/05 07:20:37;;;;;;;9.20;8.20;;;;;;;17.86;59.67;96040.97;4973599;28;20971;-78
2022/10/05 07:23:24;;;;;;;12.83;8.40;;;;;;;17.65;59.70;96045.63;4973803;28;20532;-78
2022/10/05 07:26:01;;;;;;;13.70;9.63;;;;;;;17.24;60.97;96047.69;4973729;28;20449;-78
2022/10/05 07:28:34;;;;;;;16.10;9.70;;;;;;;16.79;62.11;96041.34;4973693;28;20801;-78
2022/10/05 07:31:07;;;;;;;20.30;9.83;;;;;;;17.14;63.18;96036.25;4973780;28;20448;-77
2022/10/05 07:33:40;;;;;;;17.40;11.20;;;;;;;17.39;62.02;96029.50;4973469;28;20448;-78
2022/10/05 07:39:12;;;;;;;17.70;11.10;;;;;;;17.84;60.97;96020.84;4973484;28;20435;-78
2022/10/05 07:41:44;;;;;;;15.50;10.93;;;;;;;17.78;60.67;96029.41;4958420;28;20532;-78
2022/10/05 07:44:18;;;;;;;20.93;12.57;;;;;;;17.71;60.38;96031.81;4973244;28;21027;-78
2022/10/05 07:46:55;;;;;;;30.17;13.47;;;;;;;17.46;62.44;96043.03;4973303;28;20941;-76
2022/10/05 07:49:33;;;;;;;21.13;12.30;;;;;;;17.56;62.34;96038.53;4973028;28;20453;-78
2022/10/05 07:52:02;;;;;;;20.73;14.40;;;;;;;17.66;61.54;96031.38;5015593;28;20851;-78
2022/10/05 07:54:37;;;;;;;26.53;13.97;;;;;;;17.57;61.90;96030.41;5072351;28;20508;-78
2022/10/05 07:57:19;;;;;;;24.47;14.80;;;;;;;17.50;61.63;96039.09;5114760;28;20446;-77
2022/10/05 07:59:55;;;;;;;21.87;13.40;;;;;;;17.38;62.78;96035.81;5115201;28;20453;-78
2022/10/05 08:02:29;;;;;;;32.47;13.50;;;;;;;17.09;63.94;96030.56;5064279;28;20449;-77
2022/10/05 08:05:02;;;;;;;19.83;12.63;;;;;;;17.25;63.19;96036.09;5114919;28;20493;-77
2022/10/05 08:07:33;;;;;;;18.33;11.90;;;;;;;17.29;63.75;96042.78;5114523;28;20537;-77
2022/10/05 08:10:16;;;;;;;25.30;13.37;;;;;;;17.16;63.59;96044.09;5114629;28;20435;-77
2022/10/05 08:12:57;;;;;;;18.47;13.03;;;;;;;17.02;63.82;96037.38;5114489;28;20467;-77
2022/10/05 08:15:31;;;;;;;36.33;13.23;;;;;;;17.08;63.22;96039.50;5114682;28;20455;-78
2022/10/05 08:18:02;;;;;;;16.90;12.50;;;;;;;17.06;63.61;96049.41;5114553;28;20465;-77
2022/10/05 08:20:53;;;;;;;16.27;11.87;;;;;;;17.01;63.33;96049.81;5114705;28;20446;-77
2022/10/05 08:23:31;;;;;;;12.50;10.63;;;;;;;17.10;63.63;96049.97;5114604;28;20534;-77
2022/10/05 08:26:11;;;;;;;13.90;11.93;;;;;;;17.20;62.61;96056.91;5113505;28;20446;-78
2022/10/05 08:28:40;;;;;;;18.87;11.37;;;;;;;16.95;62.31;96058.31;5114597;28;20803;-78
2022/10/05 08:31:17;;;;;;;12.40;10.80;;;;;;;16.63;63.81;96061.22;5114404;28;20951;-78
2022/10/05 08:33:57;;;;;;;13.20;11.10;;;;;;;16.65;63.54;96058.44;5114112;28;20438;-78
2022/10/05 08:36:38;;;;;;;11.80;10.47;;;;;;;16.71;64.11;96058.75;5114192;28;20446;-77
2022/10/05 08:39:13;;;;;;;16.80;9.77;;;;;;;16.94;64.25;96059.31;5114297;28;20450;-78
2022/10/05 08:42:30;;;;;;;13.10;10.90;;;;;;;17.10;63.76;96055.25;5114278;28;20446;-78
2022/10/05 08:45:19;;;;;;;14.87;10.20;;;;;;;17.27;63.44;96052.69;5114028;28;20474;-77
2022/10/05 08:48:04;;;;;;;15.13;10.20;;;;;;;17.43;62.71;96052.13;5114035;28;20447;-77
2022/10/05 08:51:02;;;;;;;11.43;10.17;;;;;;;17.23;61.01;96047.84;5113820;28;20801;-78
2022/10/05 08:53:47;;;;;;;13.10;9.30;;;;;;;17.29;61.94;96048.09;5113947;28;20506;-78
2022/10/05 08:56:31;;;;;;;19.67;10.13;;;;;;;17.23;62.20;96048.66;5113644;28;20933;-77
2022/10/05 08:59:15;;;;;;;10.77;8.07;;;;;;;17.36;61.68;96042.25;5063915;28;20447;-77
2022/10/05 09:02:03;;;;;;;9.87;7.80;;;;;;;17.55;59.74;96044.81;5113464;28;20854;-77
2022/10/05 09:04:47;;;;;;;11.23;7.80;;;;;;;17.44;57.54;96045.00;5078079;28;20505;-78
2022/10/05 09:07:29;;;;;;;16.63;7.00;;;;;;;17.34;58.03;96055.63;5077454;28;20439;-78
2022/10/05 09:10:46;;;;;;;8.13;6.53;;;;;;;17.55;57.62;96055.44;5113420;28;20439;-78
2022/10/05 09:13:25;;;;;;;6.70;6.00;;;;;;;17.57;55.57;96056.13;4955319;28;20886;-78
2022/10/05 09:16:34;;;;;;;7.67;6.17;;;;;;;17.65;55.86;96059.75;4971903;28;20456;-78
2022/10/05 09:19:27;;;;;;;9.77;6.20;;;;;;;17.83;54.96;96046.56;4895432;29;20464;-77
2022/10/05 09:21:57;;;;;;;6.10;5.00;;;;;;;17.98;52.24;96049.59;4895298;29;20460;-78
2022/10/05 09:24:43;;;;;;;5.00;4.50;;;;;;;17.76;52.29;96056.09;4895134;29;20959;-78
2022/10/05 09:27:15;;;;;;;8.03;4.13;;;;;;;17.56;52.49;96057.94;4895300;29;20464;-78
2022/10/05 09:30:04;;;;;;;19.13;4.27;;;;;;;17.65;50.98;96045.63;4895118;29;20452;-77
2022/10/05 09:32:59;;;;;;;5.37;4.87;;;;;;;17.58;51.83;96047.19;4895247;29;20547;-78
2022/10/05 09:35:52;;;;;;;5.53;4.87;;;;;;;17.65;51.86;96048.28;4895166;29;20508;-78
2022/10/05 09:38:32;;;;;;;6.67;4.80;;;;;;;17.72;51.87;96046.75;4894165;29;20479;-77
2022/10/05 09:41:34;;;;;;;8.20;3.70;;;;;;;17.84;50.15;96053.53;4895106;29;20976;-77
2022/10/05 09:44:39;;;;;;;4.00;3.43;;;;;;;17.72;50.87;96051.22;4937912;28;20453;-78
2022/10/05 09:47:43;;;;;;;4.53;3.90;;;;;;;17.51;51.47;96054.06;4971033;28;20453;-78
2022/10/05 09:50:47;;;;;;;4.20;3.80;;;;;;;17.57;51.43;96056.97;4994554;28;20537;-77
2022/10/05 09:53:46;;;;;;;6.23;3.50;;;;;;;17.39;50.13;96053.41;5029931;28;20453;-78
2022/10/05 09:56:48;;;;;;;6.80;3.60;;;;;;;17.58;51.96;96041.88;5049646;28;20457;-78
2022/10/05 10:00:04;;;;;;;3.50;3.20;;;;;;;17.77;51.64;96052.47;4990725;28;20494;-78
2022/10/05 10:03:05;;;;;;;3.07;2.87;;;;;;;17.73;51.83;96048.44;4839293;29;20486;-78
2022/10/05 10:05:50;;;;;;;2.70;2.50;;;;;;;17.72;50.47;96046.75;4784929;30;20501;-78
2022/10/05 10:08:29;;;;;;;8.23;3.00;;;;;;;17.78;49.79;96051.47;4784644;30;20455;-78
2022/10/05 10:11:20;;;;;;;4.37;2.87;;;;;;;17.63;50.23;96051.06;4784524;30;20454;-77
2022/10/05 10:14:30;;;;;;;4.80;3.20;;;;;;;17.75;50.93;96048.28;4784717;30;20469;-78
2022/10/05 10:17:10;;;;;;;6.17;3.60;;;;;;;17.74;51.61;96047.44;4713829;30;20544;-78
2022/10/05 10:36:06;;;;;;;4.43;3.30;;;;;;;17.57;52.70;96032.22;4768272;29;20893;-78
2022/10/05 10:38:40;;;;;;;2.50;2.30;;;;;;;17.50;50.37;96036.47;4850860;29;20936;-78
2022/10/05 10:41:42;;;;;;;6.77;3.10;;;;;;;17.58;51.13;96032.09;4896955;29;20539;-78
2022/10/05 10:44:55;;;;;;;4.33;2.60;;;;;;;17.52;50.80;96027.38;4932978;29;20455;-75
2022/10/05 10:47:44;;;;;;;5.67;2.93;;;;;;;17.69;51.29;96017.84;4894271;29;20456;-78
2022/10/05 10:50:44;;;;;;;3.97;2.77;;;;;;;17.73;50.32;96019.22;4897807;29;20500;-76
2022/10/05 10:53:37;;;;;;;6.40;2.50;;;;;;;17.75;48.10;96009.28;4822692;29;20463;-78
2022/10/05 10:56:22;;;;;;;2.70;2.50;;;;;;;17.74;48.30;96012.09;4842351;29;20460;-78
2022/10/05 10:59:22;;;;;;;6.20;2.57;;;;;;;17.70;48.27;96006.25;4855472;29;20450;-78
2022/10/05 11:02:07;;;;;;;11.83;4.00;;;;;;;17.76;48.88;96003.00;4860701;29;20459;-78
2022/10/05 11:04:56;;;;;;;2.60;2.17;;;;;;;17.76;47.43;95996.84;4860439;29;21279;-76
2022/10/05 11:07:50;;;;;;;2.47;2.27;;;;;;;17.83;49.28;96003.25;4860514;29;20503;-76
2022/10/05 11:10:47;;;;;;;2.30;2.20;;;;;;;17.74;49.41;95994.34;4787412;30;20526;-79
2022/10/05 11:13:37;;;;;;;2.50;2.33;;;;;;;17.70;50.60;95990.31;4819899;29;20458;-79
2022/10/05 11:16:36;;;;;;;5.10;2.83;;;;;;;17.82;50.80;95985.63;4860319;29;20533;-77
2022/10/05 11:19:39;;;;;;;3.20;2.77;;;;;;;17.87;49.95;95981.56;4860326;29;20450;-77
2022/10/05 11:22:18;;;;;;;8.30;3.47;;;;;;;18.04;50.71;95976.44;4860178;29;20453;-78
2022/10/05 11:25:01;;;;;;;3.23;3.00;;;;;;;18.02;49.20;95967.78;4921662;29;20496;-78
2022/10/05 11:27:54;;;;;;;3.57;2.27;;;;;;;17.98;49.77;95979.69;4954207;28;20453;-78
2022/10/05 11:30:46;;;;;;;3.30;2.80;;;;;;;17.81;50.60;95976.84;4967808;28;20435;-78
2022/10/05 11:33:52;;;;;;;2.73;2.40;;;;;;;17.90;50.17;95970.63;4925787;28;20445;-78
2022/10/05 11:37:03;;;;;;;2.70;2.50;;;;;;;18.02;49.15;95968.63;4897220;29;20471;-79
2022/10/05 11:39:37;;;;;;;7.13;3.20;;;;;;;18.17;47.14;95963.63;4897247;29;20449;-78
2022/10/05 11:42:34;;;;;;;12.60;3.30;;;;;;;18.30;48.34;95958.78;4897325;29;20440;-76
2022/10/05 11:45:21;;;;;;;2.90;2.50;;;;;;;18.40;46.97;95964.84;4897041;29;20487;-78
2022/10/05 11:48:21;;;;;;;7.43;2.47;;;;;;;18.45;47.39;95965.22;4947357;28;20492;-78
2022/10/05 11:51:03;;;;;;;7.50;3.23;;;;;;;18.43;47.31;95963.72;4896689;29;20616;-78
2022/10/05 11:53:38;;;;;;;2.57;2.30;;;;;;;18.38;46.39;95958.84;4896903;29;20871;-78
2022/10/05 11:56:15;;;;;;;3.63;2.13;;;;;;;18.32;46.02;95956.81;4896863;29;20461;-78
2022/10/05 11:58:50;;;;;;;2.20;2.10;;;;;;;18.21;46.31;95941.06;4896871;29;20449;-77
2022/10/05 12:01:29;;;;;;;2.50;2.30;;;;;;;18.23;46.82;95949.75;4895714;29;20453;-78
2022/10/05 12:04:04;;;;;;;3.20;2.37;;;;;;;18.23;46.83;95942.63;4896866;29;20509;-78
2022/10/05 12:06:53;;;;;;;8.20;2.47;;;;;;;18.20;46.14;95934.09;4896685;29;20999;-76
2022/10/05 12:12:34;;;;;;;2.93;2.47;;;;;;;18.08;47.10;95930.84;4964006;28;20435;-78
2022/10/05 12:15:11;;;;;;;2.57;2.37;;;;;;;18.05;46.27;95935.63;5031628;28;20501;-78
2022/10/05 12:17:49;;;;;;;2.60;2.40;;;;;;;17.88;47.15;95930.13;5031756;28;20454;-78
2022/10/05 12:20:20;;;;;;;2.73;2.30;;;;;;;17.81;46.49;95930.88;5031602;28;20442;-78
2022/10/05 12:22:53;;;;;;;2.30;2.10;;;;;;;17.86;47.42;95929.44;5031473;28;20525;-78
2022/10/05 12:25:27;;;;;;;4.93;2.83;;;;;;;17.79;47.23;95938.97;5031505;28;20485;-78
2022/10/05 12:27:57;;;;;;;3.70;2.07;;;;;;;17.82;47.33;95944.00;5076290;28;20446;-79
2022/10/05 12:30:51;;;;;;;9.13;2.27;;;;;;;17.86;47.20;95944.53;5114293;28;20438;-76
2022/10/05 12:33:26;;;;;;;2.47;2.13;;;;;;;17.90;46.38;95944.06;5114367;28;20465;-78
2022/10/05 12:35:57;;;;;;;3.50;2.10;;;;;;;17.92;47.84;95941.28;5114376;28;20442;-78
2022/10/05 12:38:28;;;;;;;3.13;2.40;;;;;;;17.91;48.08;95935.13;5114028;28;20439;-78
2022/10/05 12:41:04;;;;;;;3.47;2.37;;;;;;;18.01;49.29;95942.22;5114146;28;20458;-78
2022/10/05 12:43:43;;;;;;;2.80;2.37;;;;;;;18.08;48.85;95937.97;5114235;28;20837;-78
2022/10/05 12:46:22;;;;;;;2.90;2.30;;;;;;;18.13;47.64;95941.84;5114235;28;20482;-79
2022/10/05 12:49:10;;;;;;;2.90;2.70;;;;;;;18.14;47.46;95935.53;5113791;28;20546;-79
2022/10/05 12:51:41;;;;;;;11.93;2.90;;;;;;;18.17;49.22;95937.06;5114085;28;20478;-78
2022/10/05 12:54:16;;;;;;;4.50;2.73;;;;;;;18.03;48.53;95934.94;5113711;28;20454;-78
2022/10/05 12:56:51;;;;;;;2.30;2.10;;;;;;;17.94;49.14;95936.66;5113832;28;20463;-78